sensor_id;sensor_type;location;lat;lon;timestamp;P1;durP1;ratioP1;P2;durP2;ratioP2
7375;SDS011;3728;42.266;24.944;2023-07-31T00:01:58;5.10;;;1.50;;
7375;SDS011;3728;42.266;24.944;2023-07-31T00:04:25;1.70;;;1.20;;
7375;SDS011;3728;42.266;24.944;2023-07-31T00:06:52;4.63;;;1.10;;
7375;SDS011;3728;42.266;24.944;2023-07-31T00:09:19;2.35;;;1.05;;
7375;SDS011;3728;42.266;24.944;2023-07-31T00:11:46;4.53;;;1.30;;
7375;SDS011;3728;42.266;24.944;2023-07-31T00:14:13;3.72;;;1.23;;
7375;SDS011;3728;42.266;24.944;2023-07-31T00:16:40;2.17;;;1.15;;
7375;SDS011;3728;42.266;24.944;2023-07-31T00:19:08;1.30;;;1.20;;
7375;SDS011;3728;42.266;24.944;2023-07-31T00:21:35;4.18;;;1.10;;
7375;SDS011;3728;42.266;24.944;2023-07-31T00:24:02;6.50;;;1.60;;
7375;SDS011;3728;42.266;24.944;2023-07-31T00:26:30;1.90;;;1.10;;
7375;SDS011;3728;42.266;24.944;2023-07-31T00:28:57;7.40;;;2.40;;
7375;SDS011;3728;42.266;24.944;2023-07-31T00:31:24;6.05;;;2.50;;
7375;SDS011;3728;42.266;24.944;2023-07-31T00:33:51;2.58;;;1.58;;
7375;SDS011;3728;42.266;24.944;2023-07-31T00:36:18;1.30;;;1.20;;
7375;SDS011;3728;42.266;24.944;2023-07-31T00:38:45;1.30;;;1.20;;
7375;SDS011;3728;42.266;24.944;2023-07-31T00:41:12;1.55;;;1.17;;
7375;SDS011;3728;42.266;24.944;2023-07-31T00:43:39;1.00;;;0.90;;
7375;SDS011;3728;42.266;24.944;2023-07-31T00:46:07;7.10;;;1.23;;
7375;SDS011;3728;42.266;24.944;2023-07-31T00:48:34;2.75;;;1.40;;
7375;SDS011;3728;42.266;24.944;2023-07-31T00:51:02;2.33;;;1.15;;
7375;SDS011;3728;42.266;24.944;2023-07-31T00:53:29;1.88;;;1.10;;
7375;SDS011;3728;42.266;24.944;2023-07-31T00:55:57;1.92;;;1.20;;
7375;SDS011;3728;42.266;24.944;2023-07-31T00:58:24;1.40;;;1.30;;
7375;SDS011;3728;42.266;24.944;2023-07-31T01:00:51;2.38;;;1.50;;
7375;SDS011;3728;42.266;24.944;2023-07-31T01:03:19;1.52;;;1.30;;
7375;SDS011;3728;42.266;24.944;2023-07-31T01:11:15;2.47;;;1.40;;
7375;SDS011;3728;42.266;24.944;2023-07-31T01:13:56;4.28;;;1.60;;
7375;SDS011;3728;42.266;24.944;2023-07-31T01:16:25;2.08;;;1.40;;
7375;SDS011;3728;42.266;24.944;2023-07-31T01:18:53;3.63;;;1.30;;
7375;SDS011;3728;42.266;24.944;2023-07-31T01:27:34;3.15;;;1.23;;
7375;SDS011;3728;42.266;24.944;2023-07-31T01:30:16;1.98;;;1.40;;
7375;SDS011;3728;42.266;24.944;2023-07-31T01:32:49;4.28;;;1.48;;
7375;SDS011;3728;42.266;24.944;2023-07-31T01:35:18;2.00;;;1.40;;
7375;SDS011;3728;42.266;24.944;2023-07-31T01:37:45;2.22;;;1.63;;
7375;SDS011;3728;42.266;24.944;2023-07-31T01:40:12;3.67;;;2.00;;
7375;SDS011;3728;42.266;24.944;2023-07-31T01:42:39;13.85;;;2.33;;
7375;SDS011;3728;42.266;24.944;2023-07-31T01:45:07;8.85;;;3.40;;
7375;SDS011;3728;42.266;24.944;2023-07-31T01:47:35;6.28;;;2.05;;
7375;SDS011;3728;42.266;24.944;2023-07-31T01:50:02;4.22;;;1.75;;
7375;SDS011;3728;42.266;24.944;2023-07-31T01:52:29;4.85;;;2.15;;
7375;SDS011;3728;42.266;24.944;2023-07-31T01:54:56;9.27;;;3.35;;
7375;SDS011;3728;42.266;24.944;2023-07-31T01:57:24;6.18;;;2.92;;
7375;SDS011;3728;42.266;24.944;2023-07-31T01:59:51;3.30;;;1.92;;
7375;SDS011;3728;42.266;24.944;2023-07-31T02:02:19;4.47;;;1.50;;
7375;SDS011;3728;42.266;24.944;2023-07-31T02:04:47;3.00;;;1.33;;
7375;SDS011;3728;42.266;24.944;2023-07-31T02:07:14;1.98;;;1.30;;
7375;SDS011;3728;42.266;24.944;2023-07-31T02:09:42;6.55;;;1.70;;
7375;SDS011;3728;42.266;24.944;2023-07-31T02:12:09;1.50;;;1.30;;
7375;SDS011;3728;42.266;24.944;2023-07-31T02:14:36;4.00;;;1.40;;
7375;SDS011;3728;42.266;24.944;2023-07-31T02:17:03;7.53;;;3.10;;
7375;SDS011;3728;42.266;24.944;2023-07-31T02:19:30;11.77;;;5.38;;
7375;SDS011;3728;42.266;24.944;2023-07-31T02:21:57;14.85;;;6.50;;
7375;SDS011;3728;42.266;24.944;2023-07-31T02:24:24;17.42;;;7.65;;
7375;SDS011;3728;42.266;24.944;2023-07-31T02:26:51;10.70;;;5.85;;
7375;SDS011;3728;42.266;24.944;2023-07-31T02:29:18;13.15;;;4.80;;
7375;SDS011;3728;42.266;24.944;2023-07-31T02:31:46;6.75;;;3.70;;
7375;SDS011;3728;42.266;24.944;2023-07-31T02:34:13;10.82;;;3.38;;
7375;SDS011;3728;42.266;24.944;2023-07-31T02:36:40;10.68;;;2.80;;
7375;SDS011;3728;42.266;24.944;2023-07-31T02:39:08;6.75;;;2.58;;
7375;SDS011;3728;42.266;24.944;2023-07-31T02:41:35;6.85;;;2.22;;
7375;SDS011;3728;42.266;24.944;2023-07-31T02:44:02;7.68;;;2.58;;
7375;SDS011;3728;42.266;24.944;2023-07-31T02:46:29;9.00;;;2.17;;
7375;SDS011;3728;42.266;24.944;2023-07-31T02:48:56;2.83;;;2.03;;
7375;SDS011;3728;42.266;24.944;2023-07-31T02:51:23;3.10;;;2.30;;
7375;SDS011;3728;42.266;24.944;2023-07-31T02:53:51;5.50;;;1.85;;
7375;SDS011;3728;42.266;24.944;2023-07-31T02:56:18;4.75;;;1.73;;
7375;SDS011;3728;42.266;24.944;2023-07-31T02:58:45;5.03;;;1.55;;
7375;SDS011;3728;42.266;24.944;2023-07-31T03:01:12;10.07;;;1.88;;
7375;SDS011;3728;42.266;24.944;2023-07-31T03:03:40;6.03;;;1.98;;
7375;SDS011;3728;42.266;24.944;2023-07-31T03:06:10;1.60;;;1.50;;
7375;SDS011;3728;42.266;24.944;2023-07-31T03:08:37;4.38;;;1.50;;
7375;SDS011;3728;42.266;24.944;2023-07-31T03:11:05;3.20;;;1.92;;
7375;SDS011;3728;42.266;24.944;2023-07-31T03:13:32;3.60;;;1.60;;
7375;SDS011;3728;42.266;24.944;2023-07-31T03:15:59;7.18;;;1.90;;
7375;SDS011;3728;42.266;24.944;2023-07-31T03:18:26;5.28;;;2.00;;
7375;SDS011;3728;42.266;24.944;2023-07-31T03:20:53;2.75;;;1.55;;
7375;SDS011;3728;42.266;24.944;2023-07-31T03:23:20;6.57;;;1.70;;
7375;SDS011;3728;42.266;24.944;2023-07-31T03:26:00;1.75;;;1.50;;
7375;SDS011;3728;42.266;24.944;2023-07-31T03:28:32;3.75;;;2.08;;
7375;SDS011;3728;42.266;24.944;2023-07-31T03:30:59;1.67;;;1.52;;
7375;SDS011;3728;42.266;24.944;2023-07-31T03:33:27;4.60;;;1.90;;
7375;SDS011;3728;42.266;24.944;2023-07-31T03:35:54;2.55;;;1.33;;
7375;SDS011;3728;42.266;24.944;2023-07-31T03:38:21;1.77;;;1.45;;
7375;SDS011;3728;42.266;24.944;2023-07-31T03:40:49;5.25;;;1.63;;
7375;SDS011;3728;42.266;24.944;2023-07-31T03:43:16;5.53;;;2.00;;
7375;SDS011;3728;42.266;24.944;2023-07-31T03:45:44;5.57;;;2.13;;
7375;SDS011;3728;42.266;24.944;2023-07-31T03:48:12;8.55;;;1.92;;
7375;SDS011;3728;42.266;24.944;2023-07-31T03:50:41;6.85;;;1.60;;
7375;SDS011;3728;42.266;24.944;2023-07-31T03:53:09;7.85;;;2.20;;
7375;SDS011;3728;42.266;24.944;2023-07-31T03:55:36;3.53;;;1.90;;
7375;SDS011;3728;42.266;24.944;2023-07-31T03:58:03;4.55;;;1.83;;
7375;SDS011;3728;42.266;24.944;2023-07-31T04:00:30;8.10;;;2.45;;
7375;SDS011;3728;42.266;24.944;2023-07-31T04:02:57;4.70;;;1.90;;
7375;SDS011;3728;42.266;24.944;2023-07-31T04:05:27;3.33;;;2.40;;
7375;SDS011;3728;42.266;24.944;2023-07-31T04:07:56;5.07;;;2.50;;
7375;SDS011;3728;42.266;24.944;2023-07-31T04:10:23;7.03;;;3.47;;
7375;SDS011;3728;42.266;24.944;2023-07-31T04:12:50;6.30;;;3.00;;
7375;SDS011;3728;42.266;24.944;2023-07-31T04:15:17;5.38;;;2.78;;
7375;SDS011;3728;42.266;24.944;2023-07-31T04:17:45;3.00;;;2.65;;
7375;SDS011;3728;42.266;24.944;2023-07-31T04:20:12;7.13;;;3.50;;
7375;SDS011;3728;42.266;24.944;2023-07-31T04:22:39;6.80;;;3.88;;
7375;SDS011;3728;42.266;24.944;2023-07-31T04:25:06;5.22;;;3.50;;
7375;SDS011;3728;42.266;24.944;2023-07-31T04:27:36;6.05;;;2.80;;
7375;SDS011;3728;42.266;24.944;2023-07-31T04:30:03;9.65;;;2.40;;
7375;SDS011;3728;42.266;24.944;2023-07-31T04:32:33;9.57;;;2.80;;
7375;SDS011;3728;42.266;24.944;2023-07-31T04:35:02;5.30;;;2.60;;
7375;SDS011;3728;42.266;24.944;2023-07-31T04:37:29;6.72;;;2.72;;
7375;SDS011;3728;42.266;24.944;2023-07-31T04:39:56;5.80;;;2.50;;
7375;SDS011;3728;42.266;24.944;2023-07-31T04:42:24;9.32;;;2.85;;
7375;SDS011;3728;42.266;24.944;2023-07-31T04:44:51;4.70;;;2.55;;
7375;SDS011;3728;42.266;24.944;2023-07-31T04:47:19;4.18;;;2.80;;
7375;SDS011;3728;42.266;24.944;2023-07-31T04:49:46;8.63;;;2.50;;
7375;SDS011;3728;42.266;24.944;2023-07-31T04:52:13;8.20;;;2.95;;
7375;SDS011;3728;42.266;24.944;2023-07-31T04:54:40;6.63;;;2.22;;
7375;SDS011;3728;42.266;24.944;2023-07-31T04:57:07;6.28;;;2.50;;
7375;SDS011;3728;42.266;24.944;2023-07-31T04:59:34;6.82;;;2.40;;
7375;SDS011;3728;42.266;24.944;2023-07-31T05:02:02;2.90;;;2.10;;
7375;SDS011;3728;42.266;24.944;2023-07-31T05:04:29;6.35;;;2.58;;
7375;SDS011;3728;42.266;24.944;2023-07-31T05:06:56;8.18;;;2.90;;
7375;SDS011;3728;42.266;24.944;2023-07-31T05:09:23;8.27;;;3.42;;
7375;SDS011;3728;42.266;24.944;2023-07-31T05:11:50;7.63;;;3.70;;
7375;SDS011;3728;42.266;24.944;2023-07-31T05:14:18;6.15;;;3.78;;
7375;SDS011;3728;42.266;24.944;2023-07-31T05:16:45;7.63;;;3.47;;
7375;SDS011;3728;42.266;24.944;2023-07-31T05:19:12;6.25;;;4.07;;
7375;SDS011;3728;42.266;24.944;2023-07-31T05:21:39;7.72;;;4.07;;
7375;SDS011;3728;42.266;24.944;2023-07-31T05:24:07;27.58;;;13.52;;
7375;SDS011;3728;42.266;24.944;2023-07-31T05:26:34;50.13;;;23.65;;
7375;SDS011;3728;42.266;24.944;2023-07-31T05:29:01;62.05;;;33.40;;
7375;SDS011;3728;42.266;24.944;2023-07-31T05:31:29;72.60;;;36.28;;
7375;SDS011;3728;42.266;24.944;2023-07-31T05:33:56;68.10;;;23.75;;
7375;SDS011;3728;42.266;24.944;2023-07-31T05:36:23;57.53;;;15.52;;
7375;SDS011;3728;42.266;24.944;2023-07-31T05:38:50;20.98;;;8.13;;
7375;SDS011;3728;42.266;24.944;2023-07-31T05:41:17;16.88;;;5.72;;
7375;SDS011;3728;42.266;24.944;2023-07-31T05:43:44;9.65;;;3.97;;
7375;SDS011;3728;42.266;24.944;2023-07-31T05:46:12;16.17;;;6.38;;
7375;SDS011;3728;42.266;24.944;2023-07-31T05:48:39;6.55;;;3.20;;
7375;SDS011;3728;42.266;24.944;2023-07-31T05:51:06;9.05;;;3.60;;
7375;SDS011;3728;42.266;24.944;2023-07-31T05:53:33;10.40;;;3.67;;
7375;SDS011;3728;42.266;24.944;2023-07-31T05:56:01;8.38;;;3.33;;
7375;SDS011;3728;42.266;24.944;2023-07-31T05:58:28;8.32;;;4.32;;
7375;SDS011;3728;42.266;24.944;2023-07-31T06:00:55;8.10;;;3.80;;
7375;SDS011;3728;42.266;24.944;2023-07-31T06:03:22;6.03;;;3.60;;
7375;SDS011;3728;42.266;24.944;2023-07-31T06:05:49;4.72;;;3.67;;
7375;SDS011;3728;42.266;24.944;2023-07-31T06:08:16;7.38;;;3.40;;
7375;SDS011;3728;42.266;24.944;2023-07-31T06:10:43;4.00;;;3.03;;
7375;SDS011;3728;42.266;24.944;2023-07-31T06:13:10;5.53;;;2.75;;
7375;SDS011;3728;42.266;24.944;2023-07-31T06:15:37;4.18;;;2.50;;
7375;SDS011;3728;42.266;24.944;2023-07-31T06:18:04;3.97;;;2.50;;
7375;SDS011;3728;42.266;24.944;2023-07-31T06:20:34;2.80;;;2.50;;
7375;SDS011;3728;42.266;24.944;2023-07-31T06:23:01;4.32;;;2.30;;
7375;SDS011;3728;42.266;24.944;2023-07-31T06:25:30;3.60;;;2.63;;
7375;SDS011;3728;42.266;24.944;2023-07-31T06:27:57;7.18;;;3.10;;
7375;SDS011;3728;42.266;24.944;2023-07-31T06:30:24;3.65;;;3.10;;
7375;SDS011;3728;42.266;24.944;2023-07-31T06:32:51;5.20;;;2.83;;
7375;SDS011;3728;42.266;24.944;2023-07-31T06:35:18;4.97;;;3.10;;
7375;SDS011;3728;42.266;24.944;2023-07-31T06:37:45;3.83;;;3.05;;
7375;SDS011;3728;42.266;24.944;2023-07-31T06:40:12;5.40;;;2.90;;
7375;SDS011;3728;42.266;24.944;2023-07-31T06:42:40;4.30;;;3.00;;
7375;SDS011;3728;42.266;24.944;2023-07-31T06:45:07;7.70;;;3.40;;
7375;SDS011;3728;42.266;24.944;2023-07-31T06:47:35;3.55;;;2.72;;
7375;SDS011;3728;42.266;24.944;2023-07-31T06:50:02;4.43;;;3.03;;
7375;SDS011;3728;42.266;24.944;2023-07-31T06:52:29;5.28;;;3.00;;
7375;SDS011;3728;42.266;24.944;2023-07-31T06:55:02;3.75;;;3.30;;
7375;SDS011;3728;42.266;24.944;2023-07-31T06:57:46;5.07;;;4.07;;
7375;SDS011;3728;42.266;24.944;2023-07-31T07:00:15;4.50;;;3.70;;
7375;SDS011;3728;42.266;24.944;2023-07-31T07:02:42;4.38;;;3.63;;
7375;SDS011;3728;42.266;24.944;2023-07-31T07:05:10;5.75;;;4.00;;
7375;SDS011;3728;42.266;24.944;2023-07-31T07:07:37;5.00;;;4.22;;
7375;SDS011;3728;42.266;24.944;2023-07-31T07:10:04;7.13;;;4.05;;
7375;SDS011;3728;42.266;24.944;2023-07-31T07:12:32;6.25;;;3.85;;
7375;SDS011;3728;42.266;24.944;2023-07-31T07:15:00;6.25;;;4.18;;
7375;SDS011;3728;42.266;24.944;2023-07-31T07:17:27;5.25;;;4.75;;
7375;SDS011;3728;42.266;24.944;2023-07-31T07:20:00;5.05;;;4.35;;
7375;SDS011;3728;42.266;24.944;2023-07-31T07:22:27;5.65;;;5.15;;
7375;SDS011;3728;42.266;24.944;2023-07-31T07:24:54;4.72;;;4.32;;
7375;SDS011;3728;42.266;24.944;2023-07-31T07:27:21;5.15;;;4.68;;
7375;SDS011;3728;42.266;24.944;2023-07-31T07:29:50;6.45;;;5.75;;
7375;SDS011;3728;42.266;24.944;2023-07-31T07:32:20;6.88;;;5.05;;
7375;SDS011;3728;42.266;24.944;2023-07-31T07:34:48;5.53;;;5.03;;
7375;SDS011;3728;42.266;24.944;2023-07-31T07:37:18;6.03;;;5.43;;
7375;SDS011;3728;42.266;24.944;2023-07-31T07:39:47;7.10;;;5.90;;
7375;SDS011;3728;42.266;24.944;2023-07-31T07:42:14;6.00;;;5.43;;
7375;SDS011;3728;42.266;24.944;2023-07-31T07:44:41;6.15;;;5.55;;
7375;SDS011;3728;42.266;24.944;2023-07-31T07:47:08;6.28;;;5.78;;
7375;SDS011;3728;42.266;24.944;2023-07-31T07:49:35;6.30;;;5.70;;
7375;SDS011;3728;42.266;24.944;2023-07-31T07:52:02;6.72;;;6.07;;
7375;SDS011;3728;42.266;24.944;2023-07-31T07:54:33;7.25;;;5.70;;
7375;SDS011;3728;42.266;24.944;2023-07-31T07:57:01;7.05;;;6.35;;
7375;SDS011;3728;42.266;24.944;2023-07-31T07:59:28;6.65;;;6.05;;
7375;SDS011;3728;42.266;24.944;2023-07-31T08:01:55;6.28;;;5.70;;
7375;SDS011;3728;42.266;24.944;2023-07-31T08:04:23;7.30;;;6.65;;
7375;SDS011;3728;42.266;24.944;2023-07-31T08:06:51;8.60;;;6.65;;
7375;SDS011;3728;42.266;24.944;2023-07-31T08:09:18;7.78;;;5.68;;
7375;SDS011;3728;42.266;24.944;2023-07-31T08:11:45;6.72;;;6.07;;
7375;SDS011;3728;42.266;24.944;2023-07-31T08:14:12;6.72;;;6.20;;
7375;SDS011;3728;42.266;24.944;2023-07-31T08:16:39;22.02;;;19.83;;
7375;SDS011;3728;42.266;24.944;2023-07-31T08:19:08;7.20;;;6.50;;
7375;SDS011;3728;42.266;24.944;2023-07-31T08:21:35;8.10;;;6.78;;
7375;SDS011;3728;42.266;24.944;2023-07-31T08:24:02;6.85;;;6.15;;
7375;SDS011;3728;42.266;24.944;2023-07-31T08:26:31;7.30;;;6.60;;
7375;SDS011;3728;42.266;24.944;2023-07-31T08:28:59;7.75;;;6.40;;
7375;SDS011;3728;42.266;24.944;2023-07-31T08:31:26;6.63;;;6.00;;
7375;SDS011;3728;42.266;24.944;2023-07-31T08:33:53;6.85;;;6.22;;
7375;SDS011;3728;42.266;24.944;2023-07-31T08:36:20;6.68;;;6.07;;
7375;SDS011;3728;42.266;24.944;2023-07-31T08:38:47;7.00;;;6.38;;
7375;SDS011;3728;42.266;24.944;2023-07-31T08:41:14;7.38;;;6.53;;
7375;SDS011;3728;42.266;24.944;2023-07-31T08:43:44;6.72;;;6.22;;
7375;SDS011;3728;42.266;24.944;2023-07-31T08:46:13;5.97;;;5.47;;
7375;SDS011;3728;42.266;24.944;2023-07-31T08:48:43;6.10;;;5.60;;
7375;SDS011;3728;42.266;24.944;2023-07-31T08:51:11;6.03;;;5.45;;
7375;SDS011;3728;42.266;24.944;2023-07-31T08:53:41;7.53;;;5.22;;
7375;SDS011;3728;42.266;24.944;2023-07-31T08:56:09;7.03;;;5.07;;
7375;SDS011;3728;42.266;24.944;2023-07-31T08:58:37;5.93;;;5.15;;
7375;SDS011;3728;42.266;24.944;2023-07-31T09:01:05;6.88;;;5.05;;
7375;SDS011;3728;42.266;24.944;2023-07-31T09:03:34;5.72;;;5.22;;
7375;SDS011;3728;42.266;24.944;2023-07-31T09:06:03;5.65;;;5.20;;
7375;SDS011;3728;42.266;24.944;2023-07-31T09:08:33;5.28;;;4.82;;
7375;SDS011;3728;42.266;24.944;2023-07-31T09:11:01;5.10;;;4.70;;
7375;SDS011;3728;42.266;24.944;2023-07-31T09:13:32;7.55;;;5.63;;
7375;SDS011;3728;42.266;24.944;2023-07-31T09:15:59;6.60;;;4.97;;
7375;SDS011;3728;42.266;24.944;2023-07-31T09:18:26;5.57;;;5.18;;
7375;SDS011;3728;42.266;24.944;2023-07-31T09:21:05;5.40;;;4.90;;
7375;SDS011;3728;42.266;24.944;2023-07-31T09:23:40;5.22;;;4.43;;
7375;SDS011;3728;42.266;24.944;2023-07-31T09:26:29;5.45;;;4.90;;
7375;SDS011;3728;42.266;24.944;2023-07-31T09:29:04;7.40;;;4.93;;
7375;SDS011;3728;42.266;24.944;2023-07-31T09:31:41;6.85;;;5.50;;
7375;SDS011;3728;42.266;24.944;2023-07-31T09:34:10;6.70;;;5.78;;
7375;SDS011;3728;42.266;24.944;2023-07-31T09:36:45;5.82;;;5.28;;
7375;SDS011;3728;42.266;24.944;2023-07-31T09:39:22;5.78;;;5.00;;
7375;SDS011;3728;42.266;24.944;2023-07-31T09:41:55;4.72;;;4.32;;
7375;SDS011;3728;42.266;24.944;2023-07-31T09:44:39;4.63;;;4.32;;
7375;SDS011;3728;42.266;24.944;2023-07-31T09:47:20;5.05;;;4.65;;
7375;SDS011;3728;42.266;24.944;2023-07-31T09:49:53;7.47;;;4.82;;
7375;SDS011;3728;42.266;24.944;2023-07-31T09:52:21;4.90;;;4.15;;
7375;SDS011;3728;42.266;24.944;2023-07-31T09:54:48;4.88;;;4.43;;
7375;SDS011;3728;42.266;24.944;2023-07-31T09:57:16;5.18;;;4.70;;
7375;SDS011;3728;42.266;24.944;2023-07-31T09:59:44;5.00;;;4.60;;
7375;SDS011;3728;42.266;24.944;2023-07-31T10:02:15;9.15;;;5.20;;
7375;SDS011;3728;42.266;24.944;2023-07-31T10:04:49;5.10;;;4.60;;
7375;SDS011;3728;42.266;24.944;2023-07-31T10:07:17;6.80;;;4.22;;
7375;SDS011;3728;42.266;24.944;2023-07-31T10:09:47;5.05;;;4.65;;
7375;SDS011;3728;42.266;24.944;2023-07-31T10:12:15;5.50;;;4.88;;
7375;SDS011;3728;42.266;24.944;2023-07-31T10:14:45;5.55;;;4.95;;
7375;SDS011;3728;42.266;24.944;2023-07-31T10:17:12;8.55;;;5.15;;
7375;SDS011;3728;42.266;24.944;2023-07-31T10:19:42;4.93;;;4.53;;
7375;SDS011;3728;42.266;24.944;2023-07-31T10:22:12;4.50;;;4.20;;
7375;SDS011;3728;42.266;24.944;2023-07-31T10:24:48;4.95;;;4.45;;
7375;SDS011;3728;42.266;24.944;2023-07-31T10:27:20;6.20;;;4.53;;
7375;SDS011;3728;42.266;24.944;2023-07-31T10:29:48;5.00;;;4.22;;
7375;SDS011;3728;42.266;24.944;2023-07-31T10:32:17;4.20;;;3.90;;
7375;SDS011;3728;42.266;24.944;2023-07-31T10:34:47;5.50;;;5.00;;
7375;SDS011;3728;42.266;24.944;2023-07-31T10:42:37;5.18;;;4.78;;
7375;SDS011;3728;42.266;24.944;2023-07-31T10:45:25;4.40;;;4.10;;
7375;SDS011;3728;42.266;24.944;2023-07-31T10:48:17;4.90;;;4.50;;
7375;SDS011;3728;42.266;24.944;2023-07-31T10:50:51;7.00;;;4.35;;
7375;SDS011;3728;42.266;24.944;2023-07-31T10:53:23;5.10;;;4.28;;
7375;SDS011;3728;42.266;24.944;2023-07-31T10:55:59;6.47;;;4.55;;
7375;SDS011;3728;42.266;24.944;2023-07-31T10:58:28;6.30;;;4.68;;
7375;SDS011;3728;42.266;24.944;2023-07-31T11:00:56;4.88;;;4.40;;
7375;SDS011;3728;42.266;24.944;2023-07-31T11:03:49;5.07;;;4.68;;
7375;SDS011;3728;42.266;24.944;2023-07-31T11:06:20;4.55;;;4.10;;
7375;SDS011;3728;42.266;24.944;2023-07-31T11:08:50;5.03;;;4.63;;
7375;SDS011;3728;42.266;24.944;2023-07-31T11:11:20;6.57;;;4.57;;
7375;SDS011;3728;42.266;24.944;2023-07-31T11:13:49;8.65;;;5.13;;
7375;SDS011;3728;42.266;24.944;2023-07-31T11:16:29;11.73;;;5.85;;
7375;SDS011;3728;42.266;24.944;2023-07-31T11:19:08;9.77;;;6.38;;
7375;SDS011;3728;42.266;24.944;2023-07-31T11:21:44;17.10;;;7.80;;
7375;SDS011;3728;42.266;24.944;2023-07-31T11:24:18;14.35;;;7.72;;
7375;SDS011;3728;42.266;24.944;2023-07-31T11:26:52;15.20;;;7.68;;
7375;SDS011;3728;42.266;24.944;2023-07-31T11:29:26;16.15;;;7.60;;
7375;SDS011;3728;42.266;24.944;2023-07-31T11:31:57;11.60;;;7.32;;
7375;SDS011;3728;42.266;24.944;2023-07-31T11:34:24;8.10;;;6.45;;
7375;SDS011;3728;42.266;24.944;2023-07-31T11:36:54;8.32;;;7.28;;
7375;SDS011;3728;42.266;24.944;2023-07-31T11:39:23;7.53;;;6.82;;
7375;SDS011;3728;42.266;24.944;2023-07-31T11:41:50;11.13;;;7.20;;
7375;SDS011;3728;42.266;24.944;2023-07-31T11:44:19;9.00;;;7.70;;
7375;SDS011;3728;42.266;24.944;2023-07-31T11:46:56;7.70;;;7.00;;
7375;SDS011;3728;42.266;24.944;2023-07-31T11:49:24;7.25;;;6.55;;
7375;SDS011;3728;42.266;24.944;2023-07-31T11:51:52;6.60;;;5.97;;
7375;SDS011;3728;42.266;24.944;2023-07-31T11:54:20;6.38;;;5.78;;
7375;SDS011;3728;42.266;24.944;2023-07-31T11:56:47;5.57;;;5.18;;
7375;SDS011;3728;42.266;24.944;2023-07-31T11:59:16;6.40;;;5.85;;
7375;SDS011;3728;42.266;24.944;2023-07-31T12:01:44;6.38;;;5.88;;
7375;SDS011;3728;42.266;24.944;2023-07-31T12:04:14;6.60;;;6.00;;
7375;SDS011;3728;42.266;24.944;2023-07-31T12:06:41;5.85;;;5.35;;
7375;SDS011;3728;42.266;24.944;2023-07-31T12:09:08;6.72;;;6.13;;
7375;SDS011;3728;42.266;24.944;2023-07-31T12:11:45;6.65;;;5.75;;
7375;SDS011;3728;42.266;24.944;2023-07-31T12:14:27;6.53;;;6.03;;
7375;SDS011;3728;42.266;24.944;2023-07-31T12:16:59;6.15;;;5.65;;
7375;SDS011;3728;42.266;24.944;2023-07-31T12:19:31;7.57;;;6.13;;
7375;SDS011;3728;42.266;24.944;2023-07-31T12:21:59;6.82;;;6.22;;
7375;SDS011;3728;42.266;24.944;2023-07-31T12:24:27;6.50;;;5.90;;
7375;SDS011;3728;42.266;24.944;2023-07-31T12:26:54;4.90;;;4.60;;
7375;SDS011;3728;42.266;24.944;2023-07-31T12:29:22;6.13;;;5.20;;
7375;SDS011;3728;42.266;24.944;2023-07-31T12:31:50;5.60;;;5.18;;
7375;SDS011;3728;42.266;24.944;2023-07-31T12:34:18;6.07;;;5.47;;
7375;SDS011;3728;42.266;24.944;2023-07-31T12:36:47;5.18;;;4.72;;
7375;SDS011;3728;42.266;24.944;2023-07-31T12:39:17;5.35;;;4.88;;
7375;SDS011;3728;42.266;24.944;2023-07-31T12:41:44;5.20;;;4.55;;
7375;SDS011;3728;42.266;24.944;2023-07-31T12:44:11;4.65;;;4.35;;
7375;SDS011;3728;42.266;24.944;2023-07-31T12:46:38;5.43;;;4.93;;
7375;SDS011;3728;42.266;24.944;2023-07-31T12:49:07;5.22;;;4.82;;
7375;SDS011;3728;42.266;24.944;2023-07-31T12:51:35;5.53;;;5.00;;
7375;SDS011;3728;42.266;24.944;2023-07-31T12:54:03;5.22;;;4.82;;
7375;SDS011;3728;42.266;24.944;2023-07-31T12:56:31;4.85;;;4.32;;
7375;SDS011;3728;42.266;24.944;2023-07-31T12:58:59;4.70;;;4.40;;
7375;SDS011;3728;42.266;24.944;2023-07-31T13:01:27;4.72;;;4.32;;
7375;SDS011;3728;42.266;24.944;2023-07-31T13:03:54;4.47;;;3.97;;
7375;SDS011;3728;42.266;24.944;2023-07-31T13:06:22;4.70;;;4.30;;
7375;SDS011;3728;42.266;24.944;2023-07-31T13:08:49;5.00;;;4.60;;
7375;SDS011;3728;42.266;24.944;2023-07-31T13:11:16;4.65;;;4.25;;
7375;SDS011;3728;42.266;24.944;2023-07-31T13:13:43;8.35;;;5.22;;
7375;SDS011;3728;42.266;24.944;2023-07-31T13:16:13;5.07;;;4.68;;
7375;SDS011;3728;42.266;24.944;2023-07-31T13:18:42;4.93;;;4.53;;
7375;SDS011;3728;42.266;24.944;2023-07-31T13:21:09;5.68;;;4.78;;
7375;SDS011;3728;42.266;24.944;2023-07-31T13:23:36;4.70;;;4.20;;
7375;SDS011;3728;42.266;24.944;2023-07-31T13:26:04;4.28;;;3.95;;
7375;SDS011;3728;42.266;24.944;2023-07-31T13:28:35;4.28;;;3.97;;
7375;SDS011;3728;42.266;24.944;2023-07-31T13:31:02;4.63;;;4.18;;
7375;SDS011;3728;42.266;24.944;2023-07-31T13:33:29;4.63;;;4.30;;
7375;SDS011;3728;42.266;24.944;2023-07-31T13:36:06;4.95;;;4.50;;
7375;SDS011;3728;42.266;24.944;2023-07-31T13:38:33;4.68;;;4.28;;
7375;SDS011;3728;42.266;24.944;2023-07-31T13:41:01;4.38;;;4.07;;
7375;SDS011;3728;42.266;24.944;2023-07-31T13:43:29;4.95;;;4.55;;
7375;SDS011;3728;42.266;24.944;2023-07-31T13:45:56;4.90;;;4.18;;
7375;SDS011;3728;42.266;24.944;2023-07-31T13:48:26;4.45;;;4.07;;
7375;SDS011;3728;42.266;24.944;2023-07-31T13:50:55;3.95;;;3.70;;
7375;SDS011;3728;42.266;24.944;2023-07-31T13:53:27;4.57;;;4.18;;
7375;SDS011;3728;42.266;24.944;2023-07-31T13:55:54;4.70;;;4.30;;
7375;SDS011;3728;42.266;24.944;2023-07-31T13:58:22;8.05;;;4.32;;
7375;SDS011;3728;42.266;24.944;2023-07-31T14:00:49;4.57;;;4.18;;
7375;SDS011;3728;42.266;24.944;2023-07-31T14:03:16;4.07;;;3.78;;
7375;SDS011;3728;42.266;24.944;2023-07-31T14:05:44;4.32;;;3.92;;
7375;SDS011;3728;42.266;24.944;2023-07-31T14:08:11;3.92;;;3.63;;
7375;SDS011;3728;42.266;24.944;2023-07-31T14:10:40;4.13;;;3.83;;
7375;SDS011;3728;42.266;24.944;2023-07-31T14:13:07;4.00;;;3.70;;
7375;SDS011;3728;42.266;24.944;2023-07-31T14:15:41;4.05;;;3.70;;
7375;SDS011;3728;42.266;24.944;2023-07-31T14:18:09;4.45;;;4.10;;
7375;SDS011;3728;42.266;24.944;2023-07-31T14:20:40;4.22;;;3.92;;
7375;SDS011;3728;42.266;24.944;2023-07-31T14:23:07;4.22;;;3.83;;
7375;SDS011;3728;42.266;24.944;2023-07-31T14:25:54;3.70;;;3.40;;
7375;SDS011;3728;42.266;24.944;2023-07-31T14:28:21;4.78;;;4.13;;
7375;SDS011;3728;42.266;24.944;2023-07-31T14:30:50;3.72;;;3.47;;
7375;SDS011;3728;42.266;24.944;2023-07-31T14:33:19;4.20;;;3.53;;
7375;SDS011;3728;42.266;24.944;2023-07-31T14:35:51;3.78;;;3.50;;
7375;SDS011;3728;42.266;24.944;2023-07-31T14:38:18;3.92;;;3.60;;
7375;SDS011;3728;42.266;24.944;2023-07-31T14:40:45;4.10;;;3.80;;
7375;SDS011;3728;42.266;24.944;2023-07-31T14:43:14;3.85;;;3.55;;
7375;SDS011;3728;42.266;24.944;2023-07-31T14:45:42;4.35;;;3.95;;
7375;SDS011;3728;42.266;24.944;2023-07-31T14:48:09;4.13;;;3.80;;
7375;SDS011;3728;42.266;24.944;2023-07-31T14:50:39;3.90;;;3.53;;
7375;SDS011;3728;42.266;24.944;2023-07-31T14:53:09;4.03;;;3.75;;
7375;SDS011;3728;42.266;24.944;2023-07-31T14:55:37;3.88;;;3.58;;
7375;SDS011;3728;42.266;24.944;2023-07-31T14:58:08;3.92;;;3.63;;
7375;SDS011;3728;42.266;24.944;2023-07-31T15:00:39;4.18;;;3.80;;
7375;SDS011;3728;42.266;24.944;2023-07-31T15:03:07;4.10;;;3.70;;
7375;SDS011;3728;42.266;24.944;2023-07-31T15:05:35;3.97;;;3.67;;
7375;SDS011;3728;42.266;24.944;2023-07-31T15:08:02;4.15;;;3.80;;
7375;SDS011;3728;42.266;24.944;2023-07-31T15:10:50;4.05;;;3.75;;
7375;SDS011;3728;42.266;24.944;2023-07-31T15:13:24;4.30;;;3.85;;
7375;SDS011;3728;42.266;24.944;2023-07-31T15:15:51;5.07;;;3.88;;
7375;SDS011;3728;42.266;24.944;2023-07-31T15:18:24;4.22;;;3.92;;
7375;SDS011;3728;42.266;24.944;2023-07-31T15:20:53;4.65;;;3.83;;
7375;SDS011;3728;42.266;24.944;2023-07-31T15:23:21;4.78;;;4.38;;
7375;SDS011;3728;42.266;24.944;2023-07-31T15:25:51;5.25;;;4.38;;
7375;SDS011;3728;42.266;24.944;2023-07-31T15:28:18;3.72;;;3.42;;